createdAt,value
2022-10-23T00:01:48.609Z,20.27
2022-10-23T00:04:19.448Z,18.83
2022-10-23T00:06:47.787Z,18.05
2022-10-23T00:09:17.808Z,18.92
2022-10-23T00:11:47.915Z,18.73
2022-10-23T00:14:16.636Z,17.88
2022-10-23T00:16:43.801Z,18.08
2022-10-23T00:19:11.209Z,19.90
2022-10-23T00:21:39.393Z,19.45
2022-10-23T00:26:39.401Z,17.05
2022-10-23T00:29:06.832Z,19.27
2022-10-23T00:31:34.141Z,19.63
2022-10-23T00:34:01.400Z,17.38
2022-10-23T00:36:28.543Z,18.58
2022-10-23T00:38:55.684Z,18.17
2022-10-23T00:41:28.084Z,18.23
2022-10-23T00:44:05.649Z,17.93
2022-10-23T00:46:33.419Z,15.93
2022-10-23T00:49:02.627Z,17.05
2022-10-23T00:51:36.769Z,16.42
2022-10-23T00:54:24.115Z,15.93
2022-10-23T00:56:57.355Z,16.00
2022-10-23T00:59:24.804Z,16.45
2022-10-23T01:01:52.298Z,16.40
2022-10-23T01:04:19.800Z,16.20
2022-10-23T01:06:58.865Z,14.65
2022-10-23T01:09:43.624Z,15.30
2022-10-23T01:12:40.553Z,15.60
2022-10-23T01:15:17.030Z,13.23
2022-10-23T01:17:57.838Z,13.80
2022-10-23T01:20:40.609Z,12.75
2022-10-23T01:23:32.301Z,13.88
2022-10-23T01:26:22.665Z,12.60
2022-10-23T01:29:05.016Z,11.55
2022-10-23T01:31:45.004Z,11.73
2022-10-23T01:34:22.449Z,11.98
2022-10-23T01:36:52.613Z,12.95
2022-10-23T01:39:27.535Z,11.75
2022-10-23T01:42:08.554Z,12.32
2022-10-23T01:44:46.772Z,13.02
2022-10-23T01:47:18.599Z,12.93
2022-10-23T01:49:47.726Z,13.02
2022-10-23T01:52:16.507Z,14.80
2022-10-23T01:54:46.412Z,12.05
2022-10-23T01:57:16.804Z,13.68
2022-10-23T01:59:52.172Z,13.95
2022-10-23T02:02:22.771Z,13.23
2022-10-23T02:05:10.821Z,12.07
2022-10-23T02:07:38.150Z,13.18
2022-10-23T02:10:07.540Z,13.68
2022-10-23T02:12:37.401Z,13.07
2022-10-23T02:15:30.129Z,13.48
2022-10-23T02:18:07.508Z,13.48
2022-10-23T02:23:35.877Z,15.02
2022-10-23T02:26:13.079Z,16.40
2022-10-23T02:28:49.039Z,14.55
2022-10-23T02:31:19.759Z,15.70
2022-10-23T02:33:47.561Z,16.30
2022-10-23T02:36:16.419Z,14.45
2022-10-23T02:38:44.434Z,16.10
2022-10-23T02:41:22.526Z,14.95
2022-10-23T02:44:14.813Z,15.00
2022-10-23T02:46:44.524Z,16.02
2022-10-23T02:49:14.821Z,15.02
2022-10-23T02:51:56.106Z,16.00
2022-10-23T02:54:39.972Z,15.15
2022-10-23T02:57:30.634Z,15.77
2022-10-23T03:00:16.840Z,14.05
2022-10-23T03:03:02.623Z,14.07
2022-10-23T03:05:35.120Z,14.98
2022-10-23T03:08:10.170Z,15.48
2022-10-23T03:10:37.686Z,13.98
2022-10-23T03:13:04.680Z,16.38
2022-10-23T03:15:31.897Z,16.13
2022-10-23T03:17:58.779Z,16.30
2022-10-23T03:20:26.224Z,17.83
2022-10-23T03:22:53.136Z,16.70
2022-10-23T03:25:20.902Z,17.00
2022-10-23T03:27:47.829Z,19.20
2022-10-23T03:30:15.986Z,19.50
2022-10-23T03:32:43.304Z,21.15
2022-10-23T03:35:10.690Z,21.90
2022-10-23T03:37:37.588Z,22.77
2022-10-23T03:40:05.250Z,22.10
2022-10-23T03:42:32.098Z,21.23
2022-10-23T03:44:59.299Z,22.65
2022-10-23T03:47:26.293Z,21.58
2022-10-23T03:49:53.371Z,23.33
2022-10-23T03:52:20.349Z,20.90
2022-10-23T03:54:47.511Z,21.60
2022-10-23T03:57:14.399Z,22.25
2022-10-23T03:59:41.767Z,19.70
2022-10-23T04:02:08.818Z,20.58
2022-10-23T04:04:36.018Z,18.83
2022-10-23T04:07:02.977Z,17.67
2022-10-23T04:09:30.106Z,18.67
2022-10-23T04:11:57.162Z,16.80
2022-10-23T04:14:25.355Z,16.38
2022-10-23T04:16:52.385Z,17.15
2022-10-23T04:19:19.977Z,17.48
2022-10-23T04:21:47.002Z,17.00
2022-10-23T04:24:14.487Z,14.20
2022-10-23T04:26:41.601Z,15.70
2022-10-23T04:29:08.700Z,15.38
2022-10-23T04:31:35.621Z,15.90
2022-10-23T04:34:02.737Z,15.38
2022-10-23T04:36:29.779Z,13.75
2022-10-23T04:38:57.162Z,16.27
2022-10-23T04:41:24.109Z,16.70
2022-10-23T04:43:51.478Z,15.73
2022-10-23T04:46:18.431Z,15.20
2022-10-23T04:48:45.520Z,14.40
2022-10-23T04:51:12.533Z,16.75
2022-10-23T04:53:39.701Z,16.02
2022-10-23T04:56:06.922Z,15.07
2022-10-23T04:58:33.812Z,15.02
2022-10-23T05:01:00.969Z,16.23
2022-10-23T05:03:27.951Z,16.55
2022-10-23T05:05:55.875Z,15.98
2022-10-23T05:08:23.648Z,16.65
2022-10-23T05:10:50.961Z,16.70
2022-10-23T05:13:19.973Z,15.23
2022-10-23T05:15:52.038Z,17.38
2022-10-23T05:18:35.702Z,16.63
2022-10-23T05:21:13.470Z,14.18
2022-10-23T05:23:43.814Z,17.17
2022-10-23T05:26:10.768Z,15.30
2022-10-23T05:28:37.819Z,15.15
2022-10-23T05:31:06.273Z,15.57
2022-10-23T05:33:34.612Z,15.02
2022-10-23T05:36:02.172Z,15.32
2022-10-23T05:38:32.743Z,16.30
2022-10-23T05:40:59.730Z,14.60
2022-10-23T05:43:27.383Z,15.15
2022-10-23T05:45:54.411Z,14.75
2022-10-23T05:48:33.929Z,15.65
2022-10-23T05:51:07.810Z,15.77
2022-10-23T05:56:06.964Z,13.20
2022-10-23T05:58:34.190Z,15.75
2022-10-23T06:01:06.232Z,15.98
2022-10-23T06:03:33.697Z,15.05
2022-10-23T06:06:00.643Z,14.25
2022-10-23T06:08:27.795Z,16.60
2022-10-23T06:10:54.771Z,16.17
2022-10-23T06:13:22.270Z,15.75
2022-10-23T06:15:49.271Z,17.20
2022-10-23T06:18:16.427Z,15.95
2022-10-23T06:20:43.330Z,16.58
2022-10-23T06:23:10.496Z,16.85
2022-10-23T06:25:37.443Z,16.40
2022-10-23T06:28:04.557Z,16.85
2022-10-23T06:30:31.573Z,18.88
2022-10-23T06:33:01.111Z,17.02
2022-10-23T06:35:30.288Z,17.10
2022-10-23T06:37:57.353Z,18.02
2022-10-23T06:40:24.201Z,18.98
2022-10-23T06:42:51.274Z,16.95
2022-10-23T06:45:18.214Z,15.73
2022-10-23T06:47:45.666Z,14.80
2022-10-23T06:50:15.380Z,16.25
2022-10-23T06:52:46.910Z,16.73
2022-10-23T06:55:15.111Z,14.80
2022-10-23T06:57:43.205Z,15.25
2022-10-23T07:00:11.349Z,15.23
2022-10-23T07:02:38.362Z,16.77
2022-10-23T07:05:08.724Z,17.67
2022-10-23T07:07:38.266Z,18.83
2022-10-23T07:10:06.145Z,17.92
2022-10-23T07:12:33.161Z,17.70
2022-10-23T07:15:00.197Z,18.00
2022-10-23T07:17:29.312Z,16.65
2022-10-23T07:19:56.446Z,18.33
2022-10-23T07:22:23.356Z,15.18
2022-10-23T07:24:50.436Z,15.88
2022-10-23T07:27:17.349Z,16.88
2022-10-23T07:29:44.513Z,19.35
2022-10-23T07:32:11.484Z,18.77
2022-10-23T07:34:38.964Z,18.30
2022-10-23T07:37:05.838Z,20.38
2022-10-23T07:39:33.002Z,19.88
2022-10-23T07:41:59.971Z,20.25
2022-10-23T07:44:27.901Z,18.80
2022-10-23T07:46:54.890Z,19.75
2022-10-23T07:49:22.067Z,20.83
2022-10-23T07:51:51.439Z,19.52
2022-10-23T07:54:19.165Z,21.70
2022-10-23T07:56:46.082Z,21.02
2022-10-23T07:59:13.814Z,19.35
2022-10-23T08:01:45.848Z,18.02
2022-10-23T08:04:12.846Z,19.30
2022-10-23T08:06:40.096Z,19.90
2022-10-23T08:09:07.240Z,18.08
2022-10-23T08:11:35.887Z,19.85
2022-10-23T08:14:04.726Z,19.05
2022-10-23T08:16:36.909Z,19.38
2022-10-23T08:19:06.032Z,20.42
2022-10-23T08:21:34.097Z,19.40
2022-10-23T08:24:01.314Z,21.38
2022-10-23T08:26:29.540Z,20.08
2022-10-23T08:28:58.387Z,20.48
2022-10-23T08:31:26.156Z,19.15
2022-10-23T08:33:53.188Z,38.38
2022-10-23T08:36:25.736Z,43.95
2022-10-23T08:38:55.683Z,35.40
2022-10-23T08:41:31.060Z,41.50
2022-10-23T08:44:08.274Z,69.35
2022-10-23T08:46:44.651Z,30.40
2022-10-23T08:49:33.465Z,41.90
2022-10-23T08:52:08.103Z,40.65
2022-10-23T08:54:55.030Z,32.85
2022-10-23T08:57:26.298Z,52.78
2022-10-23T09:00:00.982Z,40.97
2022-10-23T09:02:42.589Z,44.17
2022-10-23T09:05:44.667Z,30.05
2022-10-23T09:08:42.157Z,21.50
2022-10-23T09:11:16.456Z,26.13
2022-10-23T09:14:29.748Z,21.48
2022-10-23T09:17:16.235Z,20.52
2022-10-23T09:19:45.900Z,25.17
2022-10-23T09:22:13.539Z,20.10
2022-10-23T09:24:43.575Z,18.98
2022-10-23T09:27:17.025Z,18.80
2022-10-23T09:29:55.658Z,19.15
2022-10-23T09:32:37.714Z,19.42
2022-10-23T09:35:06.298Z,16.90
2022-10-23T09:37:36.047Z,19.38
2022-10-23T09:40:43.528Z,18.77
2022-10-23T09:43:16.243Z,19.77
2022-10-23T09:45:44.016Z,20.38
2022-10-23T09:48:17.606Z,17.85
2022-10-23T09:50:55.521Z,18.35
2022-10-23T09:53:38.307Z,19.52
2022-10-23T09:56:27.285Z,19.45
2022-10-23T09:59:19.245Z,19.20
2022-10-23T10:01:50.477Z,19.90
2022-10-23T10:04:31.232Z,18.70
2022-10-23T10:06:59.555Z,19.00
2022-10-23T10:09:26.681Z,18.20
2022-10-23T10:12:19.588Z,16.08
2022-10-23T10:14:46.490Z,16.58
2022-10-23T10:17:32.552Z,17.73
2022-10-23T10:20:06.963Z,17.23
2022-10-23T10:22:49.699Z,15.98
2022-10-23T10:25:28.474Z,16.80
2022-10-23T10:28:16.670Z,21.08
2022-10-23T10:31:10.665Z,16.10
2022-10-23T10:33:56.457Z,15.07
2022-10-23T10:37:02.939Z,13.13
2022-10-23T10:39:42.382Z,13.13
2022-10-23T10:42:31.494Z,15.05
2022-10-23T10:45:13.679Z,19.48
2022-10-23T10:48:02.403Z,20.88
2022-10-23T10:51:01.275Z,18.70
2022-10-23T10:53:41.273Z,16.48
2022-10-23T10:56:12.668Z,14.98
2022-10-23T10:58:46.609Z,14.25
2022-10-23T11:01:38.201Z,14.95
2022-10-23T11:04:13.753Z,14.63
2022-10-23T11:06:44.654Z,11.75
2022-10-23T11:09:25.940Z,11.00
2022-10-23T11:11:53.280Z,11.35
2022-10-23T11:14:33.149Z,14.48
2022-10-23T11:17:17.024Z,16.48
2022-10-23T11:19:48.425Z,16.65
2022-10-23T11:22:18.681Z,18.67
2022-10-23T11:25:08.718Z,15.38
2022-10-23T11:27:35.779Z,14.30
2022-10-23T11:30:40.149Z,13.73
2022-10-23T11:33:58.051Z,13.82
2022-10-23T11:36:50.333Z,16.45
2022-10-23T11:39:20.191Z,21.20
2022-10-23T11:42:15.039Z,15.55
2022-10-23T11:44:51.273Z,13.88
2022-10-23T11:47:38.864Z,15.30
2022-10-23T11:50:07.329Z,12.88
2022-10-23T11:53:14.976Z,15.73
2022-10-23T11:56:16.864Z,17.13
2022-10-23T11:58:48.053Z,15.48
2022-10-23T12:01:40.848Z,13.13
2022-10-23T12:04:14.101Z,14.80
2022-10-23T12:06:52.687Z,15.00
2022-10-23T12:09:43.865Z,14.15
2022-10-23T12:12:11.218Z,13.02
2022-10-23T12:14:41.146Z,13.57
2022-10-23T12:17:23.087Z,13.52
2022-10-23T12:19:55.096Z,13.85
2022-10-23T12:22:28.206Z,12.57
2022-10-23T12:25:13.234Z,13.30
2022-10-23T12:27:59.269Z,14.02
2022-10-23T12:30:41.337Z,17.17
2022-10-23T12:33:08.319Z,16.33
2022-10-23T12:36:07.220Z,15.63
2022-10-23T12:38:42.336Z,14.52
2022-10-23T12:41:19.251Z,14.15
2022-10-23T12:43:54.531Z,18.50
2022-10-23T12:46:39.568Z,20.30
2022-10-23T12:49:18.695Z,16.52
2022-10-23T12:51:53.995Z,15.65
2022-10-23T12:54:21.949Z,14.65
2022-10-23T12:56:49.693Z,14.07
2022-10-23T12:59:26.462Z,15.00
2022-10-23T13:01:54.967Z,15.90
2022-10-23T13:04:36.618Z,20.63
2022-10-23T13:07:04.336Z,15.70
2022-10-23T13:09:42.584Z,14.40
2022-10-23T13:12:20.703Z,14.38
2022-10-23T13:15:06.240Z,12.85
2022-10-23T13:17:44.126Z,13.07
2022-10-23T13:20:26.543Z,14.50
2022-10-23T13:23:00.477Z,13.30
2022-10-23T13:25:29.465Z,14.10
2022-10-23T13:28:08.619Z,14.63
2022-10-23T13:30:42.834Z,12.35
2022-10-23T13:33:26.033Z,15.65
2022-10-23T13:36:06.324Z,13.98
2022-10-23T13:38:33.757Z,11.05
2022-10-23T13:41:02.938Z,12.25
2022-10-23T13:43:31.943Z,12.02
2022-10-23T13:46:00.307Z,11.27
2022-10-23T13:48:28.093Z,11.25
2022-10-23T13:51:06.246Z,11.65
2022-10-23T13:53:33.456Z,9.02
2022-10-23T13:56:00.402Z,8.98
2022-10-23T13:58:27.648Z,9.70
2022-10-23T14:00:54.792Z,8.55
2022-10-23T14:03:24.378Z,9.52
2022-10-23T14:05:52.038Z,9.23
2022-10-23T14:08:19.439Z,10.10
2022-10-23T14:10:46.559Z,11.25
2022-10-23T14:13:13.831Z,9.27
2022-10-23T14:15:40.834Z,12.27
2022-10-23T14:18:08.585Z,11.25
2022-10-23T14:20:38.123Z,14.82
2022-10-23T14:23:05.554Z,15.50
2022-10-23T14:25:32.454Z,11.52
2022-10-23T14:27:59.675Z,10.85
2022-10-23T14:30:26.667Z,11.00
2022-10-23T14:32:54.125Z,10.07
2022-10-23T14:35:21.260Z,10.40
2022-10-23T14:37:48.486Z,10.20
2022-10-23T14:40:15.438Z,13.82
2022-10-23T14:42:42.878Z,16.55
2022-10-23T14:45:10.330Z,11.13
2022-10-23T14:47:38.977Z,8.48
2022-10-23T14:50:06.545Z,10.77
2022-10-23T14:52:33.710Z,8.98
2022-10-23T14:55:01.753Z,10.13
2022-10-23T14:57:29.374Z,9.88
2022-10-23T14:59:56.434Z,9.10
2022-10-23T15:02:23.543Z,9.65
2022-10-23T15:04:50.491Z,9.90
2022-10-23T15:07:17.773Z,9.85
2022-10-23T15:09:44.747Z,9.98
2022-10-23T15:12:11.868Z,9.75
2022-10-23T15:14:38.816Z,11.02
2022-10-23T15:17:06.366Z,10.80
2022-10-23T15:19:33.417Z,10.88
2022-10-23T15:22:00.562Z,10.52
2022-10-23T15:24:27.471Z,11.02
2022-10-23T15:26:55.003Z,11.63
2022-10-23T15:29:23.002Z,10.10
2022-10-23T15:31:57.000Z,10.85
2022-10-23T15:34:26.859Z,10.85
2022-10-23T15:36:55.276Z,11.98
2022-10-23T15:39:25.578Z,13.27
2022-10-23T15:41:56.176Z,14.20
2022-10-23T15:44:24.980Z,14.10
2022-10-23T15:46:52.177Z,13.77
2022-10-23T15:49:19.881Z,15.38
2022-10-23T15:51:47.033Z,15.13
2022-10-23T15:54:17.162Z,14.65
2022-10-23T15:56:45.496Z,15.52
2022-10-23T15:59:12.951Z,14.82
2022-10-23T16:01:40.580Z,17.13
2022-10-23T16:04:07.631Z,20.38
2022-10-23T16:06:34.758Z,18.65
2022-10-23T16:09:01.830Z,17.90
2022-10-23T16:11:31.659Z,15.85
2022-10-23T16:13:59.975Z,14.93
2022-10-23T16:16:28.224Z,15.40
2022-10-23T16:18:55.383Z,14.15
2022-10-23T16:21:25.854Z,15.57
2022-10-23T16:23:54.576Z,13.13
2022-10-23T16:26:22.715Z,13.00
2022-10-23T16:28:54.045Z,14.50
2022-10-23T16:31:23.273Z,15.10
2022-10-23T16:33:51.769Z,14.30
2022-10-23T16:36:19.521Z,14.07
2022-10-23T16:38:46.532Z,12.77
2022-10-23T16:41:13.656Z,16.02
2022-10-23T16:43:40.780Z,12.95
2022-10-23T16:46:19.661Z,14.30
2022-10-23T16:48:47.253Z,14.23
2022-10-23T16:51:17.679Z,13.25
2022-10-23T16:53:45.759Z,14.32
2022-10-23T16:56:18.083Z,15.45
2022-10-23T16:58:45.315Z,19.33
2022-10-23T17:01:27.621Z,19.00
2022-10-23T17:03:55.961Z,19.02
2022-10-23T17:06:28.885Z,14.23
2022-10-23T17:08:58.456Z,15.27
2022-10-23T17:11:34.898Z,16.05
2022-10-23T17:14:15.229Z,17.63
2022-10-23T17:16:46.756Z,17.50
2022-10-23T17:19:33.030Z,16.63
2022-10-23T17:22:03.882Z,14.57
2022-10-23T17:24:30.943Z,15.55
2022-10-23T17:26:58.287Z,14.20
2022-10-23T17:29:25.286Z,13.80
2022-10-23T17:31:52.522Z,12.95
2022-10-23T17:34:22.126Z,15.95
2022-10-23T17:36:52.292Z,16.40
2022-10-23T17:39:25.850Z,15.13
2022-10-23T17:41:53.530Z,14.77
2022-10-23T17:44:21.040Z,13.77
2022-10-23T17:46:54.005Z,13.90
2022-10-23T17:49:24.230Z,17.60
2022-10-23T17:51:53.992Z,18.73
2022-10-23T17:54:21.918Z,21.02
2022-10-23T17:56:49.062Z,20.02
2022-10-23T17:59:19.622Z,20.17
2022-10-23T18:01:48.372Z,21.70
2022-10-23T18:04:20.739Z,22.38
2022-10-23T18:06:50.655Z,19.95
2022-10-23T18:09:18.138Z,19.50
2022-10-23T18:11:48.213Z,17.38
2022-10-23T18:14:17.278Z,17.27
2022-10-23T18:16:46.086Z,19.55
2022-10-23T18:19:14.692Z,20.00
2022-10-23T18:21:42.123Z,18.77
2022-10-23T18:24:09.923Z,17.38
2022-10-23T18:26:39.204Z,17.73
2022-10-23T18:29:10.111Z,18.48
2022-10-23T18:31:37.990Z,18.67
2022-10-23T18:34:07.773Z,18.17
2022-10-23T18:36:38.635Z,25.75
2022-10-23T18:39:08.070Z,20.95
2022-10-23T18:41:41.445Z,20.38
2022-10-23T18:44:10.236Z,20.80
2022-10-23T18:46:37.687Z,20.45
2022-10-23T18:49:05.215Z,20.30
2022-10-23T18:51:34.687Z,26.90
2022-10-23T18:54:05.697Z,36.22
2022-10-23T18:56:34.254Z,31.48
2022-10-23T18:59:02.648Z,32.97
2022-10-23T19:01:30.335Z,30.35
2022-10-23T19:03:59.401Z,26.38
2022-10-23T19:06:29.135Z,25.60
2022-10-23T19:08:56.089Z,24.23
2022-10-23T19:11:25.837Z,24.45
2022-10-23T19:13:52.773Z,27.45
2022-10-23T19:16:29.137Z,28.52
2022-10-23T19:19:01.726Z,27.25
2022-10-23T19:24:02.506Z,24.10
2022-10-23T19:26:31.090Z,23.77
2022-10-23T19:28:58.514Z,23.63
2022-10-23T19:31:26.946Z,24.65
2022-10-23T19:33:54.126Z,24.00
2022-10-23T19:36:23.382Z,22.67
2022-10-23T19:38:51.041Z,21.45
2022-10-23T19:41:18.853Z,21.50
2022-10-23T19:43:45.996Z,20.65
2022-10-23T19:46:13.202Z,19.50
2022-10-23T19:48:44.996Z,20.10
2022-10-23T19:51:13.548Z,21.70
2022-10-23T19:53:42.118Z,23.08
2022-10-23T19:56:11.833Z,21.30
2022-10-23T19:58:39.257Z,19.55
2022-10-23T20:01:17.508Z,19.08
2022-10-23T20:03:50.814Z,23.30
2022-10-23T20:06:23.777Z,20.92
2022-10-23T20:08:50.933Z,18.38
2022-10-23T20:11:23.843Z,20.27
2022-10-23T20:13:52.124Z,21.95
2022-10-23T20:16:35.027Z,22.27
2022-10-23T20:19:07.106Z,19.33
2022-10-23T20:21:39.750Z,20.75
2022-10-23T20:24:07.776Z,20.92
2022-10-23T20:26:36.119Z,20.30
2022-10-23T20:29:03.502Z,23.90
2022-10-23T20:31:30.709Z,21.75
2022-10-23T20:33:57.703Z,22.33
2022-10-23T20:36:30.563Z,20.95
2022-10-23T20:38:59.230Z,21.63
2022-10-23T20:41:28.511Z,20.70
2022-10-23T20:43:56.232Z,22.83
2022-10-23T20:46:24.086Z,23.55
2022-10-23T20:48:51.598Z,21.40
2022-10-23T20:51:21.840Z,20.58
2022-10-23T20:53:49.512Z,22.60
2022-10-23T20:56:24.216Z,22.45
2022-10-23T20:58:51.217Z,20.73
2022-10-23T21:01:18.707Z,21.05
2022-10-23T21:03:51.100Z,23.40
2022-10-23T21:06:19.421Z,21.83
2022-10-23T21:08:46.555Z,21.48
2022-10-23T21:11:16.028Z,21.00
2022-10-23T21:13:44.159Z,20.25
2022-10-23T21:16:26.112Z,19.50
2022-10-23T21:18:56.889Z,20.15
2022-10-23T21:21:25.044Z,19.92
2022-10-23T21:23:53.672Z,20.10
2022-10-23T21:26:22.761Z,19.27
2022-10-23T21:28:56.289Z,20.90
2022-10-23T21:31:34.182Z,20.70
2022-10-23T21:34:01.544Z,20.33
2022-10-23T21:36:31.031Z,20.17
2022-10-23T21:39:01.810Z,20.67
2022-10-23T21:41:34.181Z,19.00
2022-10-23T21:44:03.824Z,20.77
2022-10-23T21:46:34.133Z,19.67
2022-10-23T21:49:01.354Z,19.48
2022-10-23T21:51:37.446Z,20.25
2022-10-23T21:54:06.981Z,19.30
2022-10-23T21:56:36.600Z,19.58
2022-10-23T22:01:40.734Z,20.90
2022-10-23T22:04:08.102Z,22.08
2022-10-23T22:06:35.188Z,19.23
2022-10-23T22:09:03.045Z,19.48
2022-10-23T22:11:30.195Z,22.40
2022-10-23T22:13:58.475Z,18.23
2022-10-23T22:16:26.620Z,20.40
2022-10-23T22:18:55.967Z,19.05
2022-10-23T22:21:26.591Z,21.25
2022-10-23T22:23:58.525Z,20.80
2022-10-23T22:26:32.841Z,20.92
2022-10-23T22:29:06.560Z,18.80
2022-10-23T22:31:35.217Z,19.95
2022-10-23T22:34:13.286Z,21.45
2022-10-23T22:36:51.570Z,20.13
2022-10-23T22:39:18.657Z,21.52
2022-10-23T22:41:47.518Z,21.15
2022-10-23T22:44:15.472Z,21.50
2022-10-23T22:46:42.768Z,21.02
2022-10-23T22:49:10.046Z,21.20
2022-10-23T22:51:39.069Z,21.45
2022-10-23T22:54:06.840Z,20.08
2022-10-23T22:56:34.507Z,21.25
2022-10-23T22:59:01.485Z,19.20
2022-10-23T23:01:41.959Z,19.75
2022-10-23T23:04:26.034Z,20.00
2022-10-23T23:06:56.206Z,17.95
2022-10-23T23:09:23.194Z,18.55
2022-10-23T23:11:52.553Z,19.80
2022-10-23T23:14:23.497Z,18.88
2022-10-23T23:16:54.638Z,18.40
2022-10-23T23:19:23.280Z,19.40
2022-10-23T23:21:50.714Z,18.50
2022-10-23T23:24:17.626Z,17.45
2022-10-23T23:26:44.739Z,19.08
2022-10-23T23:29:12.051Z,19.15
2022-10-23T23:31:39.736Z,17.13
2022-10-23T23:34:06.713Z,19.65
2022-10-23T23:36:34.169Z,18.33
2022-10-23T23:39:01.875Z,17.42
2022-10-23T23:41:29.339Z,19.10
2022-10-23T23:43:57.916Z,18.58
2022-10-23T23:46:25.806Z,19.52
2022-10-23T23:48:52.735Z,18.30
2022-10-23T23:51:22.770Z,19.20
2022-10-23T23:53:50.617Z,18.10
2022-10-23T23:56:18.468Z,18.88
2022-10-23T23:58:45.389Z,19.23
